createdAt,value
2023-02-16T00:04:17.492Z,82.46
2023-02-16T00:14:39.812Z,82.79
2023-02-16T00:25:01.332Z,82.26
2023-02-16T00:35:22.692Z,83.13
2023-02-16T00:45:44.100Z,83.14
2023-02-16T00:56:05.656Z,82.32
2023-02-16T01:06:45.691Z,82.69
2023-02-16T01:17:07.188Z,82.03
2023-02-16T01:27:31.576Z,82.22
2023-02-16T01:37:52.919Z,82.25
2023-02-16T01:48:20.971Z,81.56
2023-02-16T01:58:54.334Z,82.25
2023-02-16T02:09:26.452Z,81.89
2023-02-16T02:19:51.304Z,82.86
2023-02-16T02:30:31.583Z,81.88
2023-02-16T02:41:03.568Z,82.65
2023-02-16T02:51:31.317Z,83.03
2023-02-16T03:01:56.386Z,83.40
2023-02-16T03:12:36.435Z,82.89
2023-02-16T03:23:17.104Z,83.35
2023-02-16T03:33:39.186Z,83.48
2023-02-16T03:44:00.697Z,82.64
2023-02-16T03:54:22.072Z,83.50
2023-02-16T04:04:43.412Z,83.49
2023-02-16T04:15:09.961Z,83.59
2023-02-16T04:25:31.307Z,84.04
2023-02-16T04:35:52.650Z,83.56
2023-02-16T04:46:14.052Z,83.59
2023-02-16T04:56:35.451Z,84.91
2023-02-16T05:06:56.801Z,84.43
2023-02-16T05:17:20.469Z,84.21
2023-02-16T05:27:41.850Z,84.17
2023-02-16T05:38:03.207Z,83.29
2023-02-16T05:48:24.710Z,83.55
2023-02-16T05:58:46.184Z,84.21
2023-02-16T06:09:08.252Z,84.38
2023-02-16T06:19:29.642Z,82.78
2023-02-16T06:29:50.993Z,83.57
2023-02-16T06:40:15.940Z,83.72
2023-02-16T06:50:37.299Z,83.18
2023-02-16T07:00:58.764Z,83.48
2023-02-16T07:11:20.662Z,83.13
2023-02-16T07:21:42.017Z,83.51
2023-02-16T07:32:03.692Z,83.51
2023-02-16T07:42:25.134Z,83.58
2023-02-16T07:52:46.482Z,82.90
2023-02-16T08:03:08.364Z,82.89
2023-02-16T08:13:29.860Z,82.83
2023-02-16T08:23:55.978Z,83.30
2023-02-16T08:34:18.605Z,83.55
2023-02-16T08:44:42.442Z,83.99
2023-02-16T08:55:04.610Z,83.23
2023-02-16T09:05:26.083Z,83.11
2023-02-16T09:15:47.554Z,82.97
2023-02-16T09:26:09.718Z,82.19
2023-02-16T09:36:31.945Z,81.64
2023-02-16T09:46:55.091Z,81.81
2023-02-16T09:57:25.789Z,81.49
2023-02-16T10:07:58.889Z,81.48
2023-02-16T10:18:34.332Z,81.82
2023-02-16T10:28:57.886Z,82.23
2023-02-16T10:39:38.379Z,82.25
2023-02-16T10:50:00.042Z,82.35
2023-02-16T11:00:24.746Z,83.27
2023-02-16T11:10:48.931Z,84.78
2023-02-16T11:21:11.444Z,85.76
2023-02-16T11:31:39.830Z,87.19
2023-02-16T11:42:03.377Z,86.97
2023-02-16T11:52:27.367Z,86.53
2023-02-16T12:02:52.050Z,86.51
2023-02-16T12:13:31.938Z,87.21
2023-02-16T12:23:56.819Z,88.30
2023-02-16T12:34:18.178Z,88.98
2023-02-16T12:44:44.521Z,89.95
2023-02-16T12:55:20.648Z,91.04
2023-02-16T13:05:42.430Z,92.49
2023-02-16T13:16:30.228Z,92.37
2023-02-16T13:27:11.973Z,91.53
2023-02-16T13:37:52.152Z,93.09
2023-02-16T13:48:15.580Z,93.41
2023-02-16T13:58:36.950Z,92.99
2023-02-16T14:09:11.020Z,92.69
2023-02-16T14:19:32.481Z,93.89
2023-02-16T14:29:56.573Z,93.41
2023-02-16T14:40:23.176Z,92.39
2023-02-16T14:51:00.140Z,92.75
2023-02-16T15:01:22.772Z,91.98
2023-02-16T15:12:09.136Z,92.12
2023-02-16T15:22:30.777Z,92.01
2023-02-16T15:32:54.861Z,93.25
2023-02-16T15:43:22.829Z,92.59
2023-02-16T15:53:46.824Z,92.31
2023-02-16T16:04:16.833Z,91.94
2023-02-16T16:14:53.109Z,92.85
2023-02-16T16:25:30.258Z,92.61
2023-02-16T16:35:51.763Z,92.84
2023-02-16T16:46:25.369Z,93.99
2023-02-16T16:56:46.718Z,93.86
2023-02-16T17:07:08.057Z,94.50
2023-02-16T17:17:29.417Z,94.39
2023-02-16T17:27:51.258Z,95.17
2023-02-16T17:38:22.293Z,95.23
2023-02-16T17:48:43.664Z,95.70
2023-02-16T17:59:05.221Z,96.52
2023-02-16T18:09:26.570Z,97.33
2023-02-16T18:19:47.946Z,98.60
2023-02-16T18:30:10.001Z,99.20
2023-02-16T18:40:31.564Z,99.73
2023-02-16T18:50:52.971Z,100.00
2023-02-16T19:01:15.619Z,99.73
2023-02-16T19:11:37.033Z,100.00
2023-02-16T19:21:58.490Z,99.88
2023-02-16T19:32:20.407Z,100.00
2023-02-16T19:42:41.811Z,99.88
2023-02-16T19:53:03.161Z,100.00
2023-02-16T20:03:24.583Z,100.00
2023-02-16T20:13:46.053Z,100.00
2023-02-16T20:24:07.477Z,100.00
2023-02-16T20:34:28.854Z,100.00
2023-02-16T20:44:50.224Z,100.00
2023-02-16T20:55:11.639Z,100.00
2023-02-16T21:05:33.018Z,100.00
2023-02-16T21:15:54.433Z,100.00
2023-02-16T21:26:16.748Z,100.00
2023-02-16T21:36:38.810Z,100.00
2023-02-16T21:47:18.877Z,100.00
2023-02-16T21:57:40.221Z,100.00
2023-02-16T22:08:01.933Z,100.00
2023-02-16T22:18:23.320Z,100.00
2023-02-16T22:28:44.760Z,100.00
2023-02-16T22:39:06.155Z,100.00
2023-02-16T22:49:27.650Z,100.00
2023-02-16T22:59:48.994Z,100.00
2023-02-16T23:10:10.444Z,100.00
2023-02-16T23:20:31.804Z,100.00
2023-02-16T23:30:56.036Z,100.00
2023-02-16T23:41:17.574Z,100.00
2023-02-16T23:51:38.975Z,100.00
